Terminal Aerodrome Forecast
Issued by NWS Goodland, KS

Home | Current Version | Previous Version | Text Only | Print | Product List | Glossary On
Versions: 1 2 3 4 5 6 7 8 9 10 11 12 13 14 15 16 17 18 19 20 21 22 23
000
FTUS43 KGLD 032337
TAFGLD
TAF
KGLD 032337Z 0400/0424 04009KT P6SM BKN035
     FM040500 03011KT 3SM -SN BR OVC015
      TEMPO 0407/0411 1SM -SN BR SCT007 OVC010
     FM041400 36015G22KT P6SM SCT020 BKN035
     FM041800 36012KT P6SM SCT030 BKN120=

USA.gov is the U.S. government's official web portal to all federal, state and local government web resources and services.